Time;durP1;ratioP1;P1;durP2;ratioP2;P2;SDS_P1;SDS_P2;PMS_P1;PMS_P2;Temp;Humidity;BMP_temperature;BMP_pressure;BME280_temperature;BME280_humidity;BME280_pressure;Samples;Min_cycle;Max_cycle;Signal;HPM_P1;HPM_P2
2021/04/30 00:01:32;;;;;;;15.32;13.65;;;;;;;12.51;100.00;101109.79;1742899;82;21152;-90
2021/04/30 00:04:00;;;;;;;15.40;13.48;;;;;;;12.52;100.00;101113.22;1742997;81;21065;-90
2021/04/30 00:06:29;;;;;;;13.68;12.35;;;;;;;12.52;100.00;101116.69;1742370;82;21066;-90
2021/04/30 00:08:58;;;;;;;15.40;12.13;;;;;;;12.52;100.00;101108.00;1741195;80;21171;-90
2021/04/30 00:11:26;;;;;;;13.45;12.05;;;;;;;12.52;100.00;101104.08;1743157;81;22267;-90
2021/04/30 00:13:54;;;;;;;16.82;12.37;;;;;;;12.53;100.00;101102.67;1742339;81;21199;-90
2021/04/30 00:16:22;;;;;;;14.00;12.20;;;;;;;12.54;100.00;101103.50;1743004;81;21147;-90
2021/04/30 00:18:50;;;;;;;16.50;12.68;;;;;;;12.53;100.00;101100.06;1740551;82;21124;-90
2021/04/30 00:21:19;;;;;;;15.78;12.70;;;;;;;12.51;100.00;101100.65;1742962;80;21156;-90
2021/04/30 00:23:47;;;;;;;17.17;12.33;;;;;;;12.49;100.00;101104.33;1742684;82;21367;-90
2021/04/30 00:26:18;;;;;;;17.92;12.63;;;;;;;12.46;100.00;101102.30;1742823;81;21635;-90
2021/04/30 00:28:46;;;;;;;20.65;12.68;;;;;;;12.43;100.00;101099.09;1742347;82;21193;-90
2021/04/30 00:31:18;;;;;;;17.70;11.40;;;;;;;12.38;100.00;101095.52;1777083;80;21926;-90
2021/04/30 00:33:47;;;;;;;16.62;12.95;;;;;;;12.34;100.00;101097.16;1778624;80;21262;-90
2021/04/30 00:36:18;;;;;;;15.70;11.68;;;;;;;12.32;100.00;101095.98;1774045;80;21626;-90
2021/04/30 00:38:50;;;;;;;14.55;12.98;;;;;;;12.30;100.00;101088.73;1773568;80;21068;-90
2021/04/30 00:41:22;;;;;;;13.98;12.53;;;;;;;12.31;100.00;101099.05;1744158;80;21180;-90
2021/04/30 00:43:53;;;;;;;14.13;12.63;;;;;;;12.34;100.00;101094.55;1741711;80;21104;-90
2021/04/30 00:46:21;;;;;;;;;;;;;;;12.35;100.00;101094.91;1752219;80;21176;-90
2021/04/30 00:48:50;;;;;;;13.95;11.80;;;;;;;12.37;100.00;101091.72;1769919;80;22279;-90
2021/04/30 00:51:18;;;;;;;14.53;11.22;;;;;;;12.36;100.00;101088.27;1772757;80;21092;-90
2021/04/30 00:53:46;;;;;;;14.75;12.03;;;;;;;12.36;100.00;101088.27;1773518;80;21191;-90
2021/04/30 00:56:16;;;;;;;14.70;12.60;;;;;;;12.39;100.00;101084.58;1758862;80;21204;-89
2021/04/30 00:58:49;;;;;;;18.02;12.63;;;;;;;12.39;100.00;101098.48;1744652;80;21442;-90
2021/04/30 01:01:18;;;;;;;16.90;13.00;;;;;;;12.41;100.00;101088.77;1742366;82;22125;-90
2021/04/30 01:03:47;;;;;;;15.72;13.13;;;;;;;12.42;100.00;101090.89;1751991;81;21216;-90
2021/04/30 01:06:18;;;;;;;16.05;13.00;;;;;;;12.42;100.00;101091.70;1757038;80;21175;-90
2021/04/30 01:08:46;;;;;;;13.22;11.83;;;;;;;12.44;100.00;101090.31;1740475;82;21132;-90
2021/04/30 01:11:18;;;;;;;15.30;11.60;;;;;;;12.44;100.00;101086.39;1740516;82;21095;-90
2021/04/30 01:13:48;;;;;;;18.50;12.03;;;;;;;12.45;100.00;101086.75;1740997;81;21381;-89
2021/04/30 01:16:24;;;;;;;18.95;12.75;;;;;;;12.45;100.00;101091.98;1742704;80;21581;-90
2021/04/30 01:18:53;;;;;;;17.87;13.03;;;;;;;12.46;100.00;101094.92;1753275;81;21160;-90
2021/04/30 01:21:24;;;;;;;15.83;14.18;;;;;;;12.50;100.00;101089.84;1732695;82;21172;-89
2021/04/30 01:23:54;;;;;;;19.00;13.85;;;;;;;12.51;100.00;101088.05;1741781;81;21196;-90
2021/04/30 01:26:24;;;;;;;18.07;14.35;;;;;;;12.48;100.00;101086.50;1742754;80;21594;-90
2021/04/30 01:28:54;;;;;;;19.25;13.70;;;;;;;12.48;100.00;101086.50;1742786;81;21222;-90
2021/04/30 01:31:24;;;;;;;14.90;12.85;;;;;;;12.48;100.00;101079.97;1742784;81;21158;-90
2021/04/30 01:33:55;;;;;;;20.35;14.00;;;;;;;12.47;100.00;101078.30;1743014;81;21638;-90
2021/04/30 01:36:24;;;;;;;15.23;13.35;;;;;;;12.45;100.00;101072.39;1753448;80;26775;-90
2021/04/30 01:38:53;;;;;;;17.20;13.38;;;;;;;12.40;100.00;101074.50;1771397;80;22370;-90
2021/04/30 01:41:25;;;;;;;16.30;13.55;;;;;;;12.34;100.00;101067.95;1773543;80;21200;-90
2021/04/30 01:43:56;;;;;;;15.70;13.93;;;;;;;12.29;100.00;101065.72;1771566;80;21163;-90
2021/04/30 01:46:24;;;;;;;19.67;13.38;;;;;;;12.24;100.00;101066.52;1743050;80;21167;-88
2021/04/30 01:49:45;;;;;;;;;;;;;;;;;;;;;
2021/04/30 02:11:35;;;;;;;23.98;17.27;;;;;;;11.68;100.00;101065.34;1743816;80;22902;-90
2021/04/30 02:14:10;;;;;;;29.40;17.57;;;;;;;11.61;100.00;101075.86;1718589;82;21871;-91
2021/04/30 02:16:42;;;;;;;24.00;17.17;;;;;;;11.57;100.00;101077.05;1718429;82;21370;-92
2021/04/30 02:20:43;;;;;;;;;;;;;;;;;;;;;
2021/04/30 03:15:44;;;;;;;40.73;22.30;;;;;;;10.51;100.00;101084.77;1757615;76;21518;-93
2021/04/30 03:18:14;;;;;;;25.25;18.15;;;;;;;10.56;100.00;101087.06;1770370;79;21150;-93
2021/04/30 03:20:50;;;;;;;21.68;15.13;;;;;;;10.65;100.00;101092.95;1751085;80;21189;-92
2021/04/30 03:23:18;;;;;;;20.57;15.03;;;;;;;10.73;100.00;101093.27;1767533;80;21046;-93
2021/04/30 03:25:53;;;;;;;21.35;16.20;;;;;;;10.82;100.00;101090.48;1761728;81;21149;-93
2021/04/30 03:28:49;;;;;;;17.52;15.65;;;;;;;10.89;100.00;101089.16;1757132;81;21133;-93
2021/04/30 03:31:46;;;;;;;18.57;14.63;;;;;;;10.97;100.00;101087.79;1702233;84;21466;-93
2021/04/30 03:34:22;;;;;;;24.30;13.50;;;;;;;11.06;100.00;101087.12;1702605;81;21423;-93
2021/04/30 03:41:14;;;;;;;17.87;15.25;;;;;;;11.12;100.00;101081.95;1761736;81;21130;-93
2021/04/30 03:43:44;;;;;;;20.32;15.98;;;;;;;11.14;100.00;101074.88;1734491;81;21186;-93
2021/04/30 03:46:13;;;;;;;22.30;15.63;;;;;;;11.12;100.00;101077.59;1708616;81;21198;-92
2021/04/30 03:49:12;;;;;;;20.72;14.85;;;;;;;11.10;100.00;101073.41;1721132;81;21571;-92
2021/04/30 03:51:53;;;;;;;35.78;15.85;;;;;;;11.11;100.00;101077.68;1741746;81;21616;-92
2021/04/30 03:54:23;;;;;;;21.17;15.55;;;;;;;11.17;100.00;101085.91;1752197;81;23473;-92
2021/04/30 03:56:52;;;;;;;22.98;15.08;;;;;;;11.23;100.00;101084.66;1734655;81;21160;-91
2021/04/30 03:59:21;;;;;;;18.80;15.40;;;;;;;11.24;100.00;101087.63;1730044;81;21073;-92
2021/04/30 04:01:51;;;;;;;28.67;15.80;;;;;;;11.28;100.00;101085.16;1702993;82;21370;-92
2021/04/30 04:04:19;;;;;;;23.83;16.40;;;;;;;11.27;100.00;101080.87;1720427;82;21248;-92
2021/04/30 04:06:47;;;;;;;33.40;16.05;;;;;;;11.23;100.00;101089.02;1700997;83;21149;-91
2021/04/30 04:09:15;;;;;;;107.37;18.40;;;;;;;11.22;100.00;101097.33;1708964;82;22013;-89
2021/04/30 04:11:44;;;;;;;134.80;19.85;;;;;;;11.25;100.00;101093.20;1727347;82;21194;-89
2021/04/30 04:14:12;;;;;;;31.35;15.78;;;;;;;11.38;100.00;101087.11;1726094;82;21606;-89
2021/04/30 04:16:40;;;;;;;26.75;16.30;;;;;;;11.48;100.00;101096.77;1727411;81;21965;-89
2021/04/30 04:19:09;;;;;;;45.55;16.42;;;;;;;11.56;100.00;101092.78;1718218;82;21189;-89
2021/04/30 04:21:38;;;;;;;46.30;17.27;;;;;;;11.64;100.00;101092.61;1680126;84;21095;-89
2021/04/30 04:24:07;;;;;;;44.50;16.20;;;;;;;11.77;100.00;101091.70;1679758;84;21620;-89
2021/04/30 04:26:35;;;;;;;51.98;16.42;;;;;;;11.83;100.00;101097.33;1695817;81;21365;-89
2021/04/30 04:29:03;;;;;;;17.17;15.30;;;;;;;11.94;100.00;101103.52;1690873;82;21149;-90
2021/04/30 04:31:33;;;;;;;19.57;15.28;;;;;;;12.07;100.00;101108.24;1722127;82;21528;-89
2021/04/30 04:34:02;;;;;;;34.58;16.97;;;;;;;12.13;100.00;101113.49;1684104;84;21233;-89
2021/04/30 04:36:32;;;;;;;25.10;16.60;;;;;;;12.16;100.00;101109.33;1703097;82;21645;-89
2021/04/30 04:39:01;;;;;;;29.95;15.95;;;;;;;12.15;100.00;101111.58;1705128;82;22132;-89
2021/04/30 04:41:29;;;;;;;26.27;14.50;;;;;;;12.14;100.00;101111.22;1748058;81;21197;-90
2021/04/30 04:43:57;;;;;;;22.70;15.32;;;;;;;12.22;100.00;101116.70;1749701;81;21159;-89
2021/04/30 04:46:25;;;;;;;22.93;14.95;;;;;;;12.34;100.00;101110.22;1752756;81;21185;-90
2021/04/30 04:48:53;;;;;;;32.28;17.17;;;;;;;12.47;100.00;101112.26;1727124;82;21156;-90
2021/04/30 04:51:22;;;;;;;19.82;15.03;;;;;;;12.56;100.00;101110.75;1699253;82;21594;-90
2021/04/30 04:53:50;;;;;;;23.80;15.43;;;;;;;12.68;100.00;101114.21;1697992;83;21235;-90
2021/04/30 04:56:25;;;;;;;23.40;14.20;;;;;;;12.72;100.00;101108.64;1689968;84;21162;-90
2021/04/30 04:58:50;;;;;;;28.25;15.68;;;;;;;12.78;100.00;101100.78;1693206;82;21166;-90
2021/04/30 05:01:18;;;;;;;22.90;15.43;;;;;;;12.83;100.00;101102.58;1715900;81;21103;-90
2021/04/30 05:03:47;;;;;;;54.83;16.57;;;;;;;12.89;100.00;101104.72;1666758;86;21557;-90
2021/04/30 05:06:15;;;;;;;18.55;14.50;;;;;;;12.98;100.00;101104.47;1673702;84;21613;-90
2021/04/30 05:08:44;;;;;;;21.52;14.33;;;;;;;13.12;100.00;101106.02;1673789;83;21255;-89
2021/04/30 05:11:12;;;;;;;18.85;14.83;;;;;;;13.18;100.00;101107.32;1707200;82;21983;-90
2021/04/30 05:13:40;;;;;;;53.25;17.07;;;;;;;13.26;100.00;101114.09;1719734;83;21625;-90
2021/04/30 05:16:08;;;;;;;18.77;15.18;;;;;;;13.35;100.00;101106.83;1699543;83;22372;-89
2021/04/30 05:18:37;;;;;;;18.70;13.55;;;;;;;13.45;100.00;101105.64;1697511;84;21157;-90
2021/04/30 05:21:06;;;;;;;16.73;12.10;;;;;;;13.51;100.00;101108.26;1723225;82;21201;-90
2021/04/30 05:23:37;;;;;;;15.75;12.18;;;;;;;13.53;100.00;101109.80;1714732;83;21237;-90
2021/04/30 05:26:05;;;;;;;24.07;13.10;;;;;;;13.53;100.00;101105.87;1704765;83;21147;-90
2021/04/30 05:28:34;;;;;;;22.25;12.73;;;;;;;13.53;100.00;101107.17;1721358;81;22287;-90
2021/04/30 05:31:02;;;;;;;23.12;13.50;;;;;;;13.52;100.00;101100.27;1733833;81;21099;-90
2021/04/30 05:33:34;;;;;;;18.73;12.33;;;;;;;13.53;100.00;101102.44;1682903;84;21643;-90
2021/04/30 05:36:04;;;;;;;21.55;12.43;;;;;;;13.52;100.00;101099.46;1673657;83;21126;-90
2021/04/30 05:38:33;;;;;;;31.57;13.45;;;;;;;13.48;100.00;101100.18;1698775;83;21122;-90
2021/04/30 05:41:01;;;;;;;15.10;12.35;;;;;;;13.49;100.00;101094.46;1730665;81;22127;-90
2021/04/30 05:43:29;;;;;;;16.45;12.47;;;;;;;13.55;100.00;101097.42;1697604;82;21178;-90
2021/04/30 05:46:01;;;;;;;13.98;11.80;;;;;;;13.65;100.00;101090.16;1721091;82;21046;-91
2021/04/30 05:48:31;;;;;;;13.72;12.35;;;;;;;13.77;100.00;101090.45;1726613;81;21605;-91
2021/04/30 05:50:59;;;;;;;13.60;11.95;;;;;;;13.88;100.00;101097.42;1693382;81;21550;-91
2021/04/30 05:53:30;;;;;;;13.43;11.38;;;;;;;13.99;100.00;101090.00;1707931;82;22312;-90
2021/04/30 05:56:00;;;;;;;15.20;12.23;;;;;;;14.13;100.00;101090.17;1698654;82;21460;-89
2021/04/30 05:58:28;;;;;;;24.55;11.95;;;;;;;14.24;100.00;101092.75;1716376;82;21553;-89
2021/04/30 06:00:59;;;;;;;19.27;11.50;;;;;;;14.34;100.00;101085.76;1709824;81;21213;-90
2021/04/30 06:04:06;;;;;;;13.00;11.43;;;;;;;14.47;100.00;101088.18;1690250;82;21158;-91
2021/04/30 06:07:03;;;;;;;14.15;11.80;;;;;;;14.60;100.00;101084.54;1712508;83;21369;-91
2021/04/30 06:09:31;;;;;;;12.60;11.30;;;;;;;14.74;100.00;101080.29;1679361;83;21185;-91
2021/04/30 06:12:13;;;;;;;14.18;11.55;;;;;;;14.85;100.00;101080.67;1693283;83;21150;-90
2021/04/30 06:14:43;;;;;;;12.70;11.50;;;;;;;14.92;100.00;101074.43;1696500;83;21171;-91
2021/04/30 06:17:11;;;;;;;14.23;11.00;;;;;;;15.02;100.00;101079.70;1723478;82;21583;-91
2021/04/30 06:19:40;;;;;;;12.78;10.90;;;;;;;15.11;100.00;101081.03;1690258;83;21746;-91
2021/04/30 06:22:10;;;;;;;12.40;11.10;;;;;;;15.24;100.00;101069.48;1686913;83;21189;-90
2021/04/30 06:24:39;;;;;;;12.82;10.65;;;;;;;15.33;100.00;101073.92;1693861;82;21150;-91
2021/04/30 06:27:07;;;;;;;12.15;10.82;;;;;;;15.42;100.00;101072.27;1695354;83;21181;-90
2021/04/30 06:29:35;;;;;;;11.55;9.58;;;;;;;15.51;100.00;101070.14;1714079;80;21219;-90
2021/04/30 06:32:04;;;;;;;10.98;9.98;;;;;;;15.64;100.00;101070.34;1744670;81;22104;-91
2021/04/30 06:34:35;;;;;;;17.15;11.25;;;;;;;15.76;100.00;101071.39;1717168;82;21178;-91
2021/04/30 06:37:04;;;;;;;11.50;10.28;;;;;;;15.88;100.00;101072.11;1715284;83;21121;-91
2021/04/30 06:39:33;;;;;;;11.20;10.08;;;;;;;15.99;100.00;101072.45;1699266;82;21182;-91
2021/04/30 06:45:55;;;;;;;12.13;9.85;;;;;;;16.18;100.00;101074.24;1695420;83;21220;-91
2021/04/30 06:48:25;;;;;;;12.25;9.58;;;;;;;16.34;100.00;101069.70;1688401;84;21181;-91
2021/04/30 06:50:54;;;;;;;;;;;;;;;16.47;100.00;101067.23;1690846;83;21201;-91
2021/04/30 06:53:23;;;;;;;10.05;9.05;;;;;;;16.58;100.00;101069.70;1688458;84;20495;-91
2021/04/30 06:55:51;;;;;;;9.58;8.58;;;;;;;16.69;100.00;101061.64;1688553;83;21193;-91
2021/04/30 06:58:20;;;;;;;9.80;8.80;;;;;;;16.81;100.00;101060.97;1669066;84;21198;-91
2021/04/30 07:00:48;;;;;;;9.55;8.60;;;;;;;16.88;100.00;101058.56;1688309;83;21130;-91
2021/04/30 07:03:16;;;;;;;9.65;8.75;;;;;;;16.96;100.00;101057.88;1688398;84;21190;-91
2021/04/30 07:05:47;;;;;;;10.27;8.77;;;;;;;17.06;100.00;101059.98;1686810;83;21117;-91
2021/04/30 07:08:16;;;;;;;9.53;8.50;;;;;;;17.19;100.00;101059.60;1688398;83;21141;-91
2021/04/30 07:10:44;;;;;;;10.98;9.10;;;;;;;17.30;100.00;101059.91;1688470;84;22241;-91
2021/04/30 07:13:41;;;;;;;11.80;8.30;;;;;;;17.42;100.00;101046.04;1688616;84;21095;-91
2021/04/30 07:16:09;;;;;;;10.28;9.18;;;;;;;17.55;100.00;101049.11;1688769;84;21157;-91
2021/04/30 07:18:42;;;;;;;9.88;8.53;;;;;;;17.66;100.00;101045.42;1688670;83;21170;-91
2021/04/30 07:21:12;;;;;;;;;;;;;;;17.77;100.00;101046.98;1692559;82;21106;-90
2021/04/30 07:23:43;;;;;;;9.75;8.58;;;;;;;17.80;100.00;101041.43;1703569;82;21205;-91
2021/04/30 07:30:05;;;;;;;9.40;8.13;;;;;;;17.89;100.00;101039.20;1687852;84;21527;-88
2021/04/30 07:32:33;;;;;;;13.10;8.87;;;;;;;17.99;100.00;101043.59;1688726;83;21193;-89
2021/04/30 07:39:25;;;;;;;11.28;8.30;;;;;;;18.03;100.00;101044.92;1702244;83;21154;-89
2021/04/30 07:41:59;;;;;;;9.35;7.60;;;;;;;18.06;96.49;101029.63;1711962;83;21626;-91
2021/04/30 07:48:53;;;;;;;12.07;8.45;;;;;;;18.06;95.43;101034.08;1689379;83;21178;-89
2021/04/30 07:51:22;;;;;;;8.88;8.08;;;;;;;17.95;91.70;101034.66;1688230;83;21114;-89
2021/04/30 07:53:55;;;;;;;8.78;7.50;;;;;;;17.99;94.75;101029.09;1669045;83;21489;-89
2021/04/30 07:56:24;;;;;;;9.00;8.15;;;;;;;18.14;99.10;101026.23;1688377;83;21165;-89
2021/04/30 07:58:52;;;;;;;8.43;7.62;;;;;;;18.36;94.42;101034.59;1668499;85;21598;-89
2021/04/30 08:01:21;;;;;;;9.90;7.70;;;;;;;18.58;96.87;101030.58;1703482;83;21142;-89
2021/04/30 08:03:49;;;;;;;9.03;7.58;;;;;;;18.77;93.41;101029.50;1712021;82;21484;-89
2021/04/30 08:06:18;;;;;;;9.03;7.75;;;;;;;18.97;95.30;101026.14;1715132;82;22337;-91
2021/04/30 08:08:50;;;;;;;10.08;8.20;;;;;;;19.13;88.12;101020.56;1716242;82;21299;-91
2021/04/30 08:11:18;;;;;;;8.83;7.92;;;;;;;19.23;88.23;101020.74;1719826;82;21133;-91
2021/04/30 08:13:47;;;;;;;8.93;8.03;;;;;;;19.20;80.67;101023.70;1745077;80;21155;-90
2021/04/30 08:16:15;;;;;;;9.85;7.37;;;;;;;19.10;76.89;101017.77;1712759;81;21717;-89
2021/04/30 08:18:44;;;;;;;8.23;7.42;;;;;;;19.07;83.00;101016.25;1710937;82;21239;-89
2021/04/30 08:28:50;;;;;;;8.73;7.67;;;;;;;19.00;79.74;101007.83;1700369;83;21138;-88
2021/04/30 08:35:37;;;;;;;9.35;6.92;;;;;;;18.72;87.19;100992.20;1696034;82;21166;-89
2021/04/30 08:42:11;;;;;;;7.97;7.17;;;;;;;18.57;87.01;100983.59;1679302;80;21174;-89
2021/04/30 08:48:45;;;;;;;7.53;6.83;;;;;;;19.22;90.97;100983.45;1712180;82;21163;-89
2021/04/30 08:51:13;;;;;;;9.45;7.60;;;;;;;19.63;87.12;100976.02;1708764;82;21159;-89
2021/04/30 08:53:42;;;;;;;8.78;7.28;;;;;;;19.77;82.56;100974.53;1722751;81;21186;-89
2021/04/30 08:56:12;;;;;;;7.75;6.87;;;;;;;19.77;77.31;100971.89;1711626;82;21217;-89
2021/04/30 08:58:40;;;;;;;8.68;6.80;;;;;;;19.69;69.81;100965.29;1705686;81;21483;-89
2021/04/30 09:01:09;;;;;;;9.83;7.62;;;;;;;19.58;70.02;100951.94;1722941;82;21211;-89
2021/04/30 09:03:47;;;;;;;9.35;6.50;;;;;;;19.61;77.27;100953.41;1723932;80;22344;-89
2021/04/30 09:06:18;;;;;;;6.67;6.08;;;;;;;19.78;72.02;100956.37;1667552;84;21178;-89
2021/04/30 09:08:49;;;;;;;6.83;5.70;;;;;;;19.97;67.66;100949.10;1694354;81;21152;-91
2021/04/30 09:11:38;;;;;;;7.33;6.45;;;;;;;20.07;65.35;100947.58;1723394;82;21285;-91
2021/04/30 09:14:35;;;;;;;7.80;7.00;;;;;;;20.22;69.30;100942.42;1868560;75;22447;-90
2021/04/30 09:17:09;;;;;;;8.20;7.28;;;;;;;20.23;68.74;100948.04;1843382;77;21205;-89
2021/04/30 09:19:48;;;;;;;6.97;6.20;;;;;;;20.20;64.35;100943.08;1846178;77;22277;-87
2021/04/30 09:22:26;;;;;;;16.87;6.47;;;;;;;20.05;62.63;100942.47;1828171;77;21598;-88
2021/04/30 09:25:08;;;;;;;10.05;6.12;;;;;;;19.92;64.45;100935.07;1830683;77;21092;-91
2021/04/30 09:31:50;;;;;;;9.05;6.40;;;;;;;19.65;65.27;100934.94;1832740;77;20973;-88
2021/04/30 09:38:47;;;;;;;6.78;6.08;;;;;;;19.70;74.19;100923.36;1838142;77;21135;-88
2021/04/30 09:45:40;;;;;;;6.90;6.08;;;;;;;20.01;67.64;100913.40;1846022;77;21143;-90
2021/04/30 09:48:11;;;;;;;;;;;;;;;19.86;63.23;100915.43;1843775;76;21107;-90
2021/04/30 09:50:44;;;;;;;5.85;5.35;;;;;;;19.94;67.91;100911.11;1828132;76;21187;-90
2021/04/30 09:53:17;;;;;;;6.80;5.92;;;;;;;20.08;64.94;100901.14;1849538;77;21502;-90
2021/04/30 09:55:48;;;;;;;;;;;;;;;20.14;61.73;100912.86;1847623;77;21213;-90
2021/04/30 09:58:23;;;;;;;10.88;5.70;;;;;;;20.16;59.36;100913.01;1859533;77;20301;-90
2021/04/30 10:00:59;;;;;;;6.65;5.53;;;;;;;20.21;59.87;100908.53;1837587;77;21119;-89
2021/04/30 10:03:28;;;;;;;11.45;5.97;;;;;;;20.32;65.01;100907.32;1828865;77;22061;-89
2021/04/30 10:06:13;;;;;;;6.22;5.37;;;;;;;20.35;61.72;100901.70;1839653;77;21151;-89
2021/04/30 10:08:42;;;;;;;7.12;5.35;;;;;;;20.42;61.95;100900.52;1848688;76;21169;-89
2021/04/30 10:36:53;;;;;;;8.25;5.33;;;;;;;21.56;58.83;100877.33;1712905;82;21471;-88
2021/04/30 10:39:32;;;;;;;6.37;5.25;;;;;;;21.66;53.44;100871.30;1745005;82;21203;-88
2021/04/30 10:42:12;;;;;;;8.58;5.03;;;;;;;21.76;53.45;100868.36;1743461;82;21430;-88
2021/04/30 10:44:44;;;;;;;10.25;5.20;;;;;;;21.82;52.72;100869.46;1668860;85;21562;-88
2021/04/30 10:47:21;;;;;;;7.30;4.67;;;;;;;21.90;50.79;100866.72;1720702;82;21392;-88
2021/04/30 10:50:17;;;;;;;12.68;5.12;;;;;;;22.02;52.38;100861.25;1717556;83;21151;-89
2021/04/30 11:01:23;;;;;;;8.65;5.85;;;;;;;22.25;49.38;100857.63;1744694;82;21029;-92
2021/04/30 11:04:26;;;;;;;9.25;5.60;;;;;;;22.24;48.96;100847.22;1690295;84;21162;-89
2021/04/30 11:06:55;;;;;;;5.78;4.87;;;;;;;22.31;51.09;100848.11;1744027;82;21147;-89
2021/04/30 11:09:38;;;;;;;8.40;5.28;;;;;;;22.41;50.66;100847.83;1699768;83;21091;-89
2021/04/30 11:12:23;;;;;;;5.10;4.53;;;;;;;22.40;50.61;100847.52;1743967;82;22120;-90
2021/04/30 11:15:19;;;;;;;6.03;4.78;;;;;;;22.40;49.38;100837.74;1699626;83;21471;-90
2021/04/30 11:18:03;;;;;;;7.20;4.62;;;;;;;22.49;47.20;100834.45;1744192;82;21107;-90
2021/04/30 11:20:35;;;;;;;6.40;4.50;;;;;;;22.44;48.33;100832.36;1699426;83;21238;-89
2021/04/30 11:23:20;;;;;;;7.15;5.00;;;;;;;22.30;49.38;100826.58;1739578;82;21655;-90
2021/04/30 11:26:03;;;;;;;12.63;5.15;;;;;;;;;;1743424;82;22372;-90
2021/04/30 11:28:36;;;;;;;9.53;5.40;;;;;;;21.62;51.91;100815.69;1743382;82;21195;-89
2021/04/30 11:31:14;;;;;;;7.00;5.40;;;;;;;21.50;52.35;100813.16;1740131;82;21194;-90
2021/04/30 11:33:45;;;;;;;6.85;5.35;;;;;;;21.44;52.27;100802.27;1674687;84;21151;-90
2021/04/30 11:36:14;;;;;;;7.90;5.50;;;;;;;21.38;51.56;100803.52;1743021;82;21075;-90
2021/04/30 11:38:48;;;;;;;9.38;6.00;;;;;;;21.21;52.72;100805.02;1698984;83;21369;-90
2021/04/30 11:41:17;;;;;;;8.53;5.95;;;;;;;21.10;54.88;100800.15;1743346;82;21183;-90
2021/04/30 11:43:51;;;;;;;6.37;4.72;;;;;;;21.02;57.22;100795.77;1695147;83;21189;-90
2021/04/30 11:46:19;;;;;;;6.62;5.22;;;;;;;21.03;55.88;100793.93;1743302;82;21087;-89
2021/04/30 11:48:51;;;;;;;6.33;5.22;;;;;;;21.11;57.54;100789.37;1699142;84;21598;-89
2021/04/30 11:51:20;;;;;;;6.33;4.87;;;;;;;21.21;59.05;100790.45;1718593;82;21214;-90
2021/04/30 11:53:59;;;;;;;9.20;5.45;;;;;;;21.34;57.13;100788.50;1698967;83;21206;-89
2021/04/30 11:56:31;;;;;;;7.03;5.20;;;;;;;21.35;56.14;100786.66;1743368;82;21183;-90
2021/04/30 11:59:00;;;;;;;6.62;4.67;;;;;;;21.34;54.67;100788.98;1673528;83;22328;-90
2021/04/30 12:01:34;;;;;;;5.65;4.70;;;;;;;21.34;53.73;100782.36;1740150;82;21519;-90
2021/04/30 12:04:02;;;;;;;8.00;4.75;;;;;;;21.25;53.87;100773.70;1699201;84;21400;-90
2021/04/30 12:06:31;;;;;;;7.20;5.10;;;;;;;21.16;54.24;100769.48;1743266;82;21243;-90
2021/04/30 12:09:00;;;;;;;8.33;4.72;;;;;;;21.07;50.94;100765.59;1699085;83;21171;-90
2021/04/30 12:11:34;;;;;;;5.20;4.45;;;;;;;21.01;52.58;100767.65;1743334;82;21159;-89
2021/04/30 12:14:06;;;;;;;5.72;5.08;;;;;;;21.06;54.38;100763.14;1673489;84;21142;-89
2021/04/30 12:16:34;;;;;;;7.22;4.95;;;;;;;21.22;53.44;100763.45;1743443;82;22397;-89
2021/04/30 12:19:03;;;;;;;6.12;4.30;;;;;;;21.49;56.68;100757.20;1673551;84;21697;-89
2021/04/30 12:21:34;;;;;;;6.83;4.95;;;;;;;21.69;54.03;100756.16;1743432;82;21127;-90
2021/04/30 12:24:05;;;;;;;5.30;4.80;;;;;;;21.77;52.90;100749.43;1699394;83;21169;-89
2021/04/30 12:26:35;;;;;;;8.00;5.65;;;;;;;21.70;50.68;100749.86;1743721;82;21544;-90
2021/04/30 12:29:08;;;;;;;6.15;5.42;;;;;;;21.41;50.27;100745.70;1699581;83;22135;-89
2021/04/30 12:31:40;;;;;;;8.65;5.50;;;;;;;21.06;50.31;100748.06;1743670;82;21582;-90
2021/04/30 12:34:12;;;;;;;6.05;5.55;;;;;;;20.96;55.64;100736.91;1699345;83;21712;-90
2021/04/30 12:36:41;;;;;;;7.17;5.47;;;;;;;21.14;55.24;100734.42;1743076;82;21171;-89
2021/04/30 12:39:10;;;;;;;6.22;5.00;;;;;;;21.50;55.75;100729.72;1699007;83;21158;-89
2021/04/30 12:41:43;;;;;;;5.12;4.62;;;;;;;21.83;54.85;100726.15;1743158;82;22196;-89
2021/04/30 12:44:15;;;;;;;4.87;4.28;;;;;;;22.13;53.47;100724.72;1699301;83;21194;-90
2021/04/30 12:46:45;;;;;;;5.75;5.20;;;;;;;22.38;50.27;100719.86;1743141;82;21195;-90
2021/04/30 12:49:17;;;;;;;8.48;6.08;;;;;;;22.51;51.85;100720.48;1699492;84;21193;-90
2021/04/30 12:51:54;;;;;;;5.40;4.90;;;;;;;22.60;51.22;100721.18;1718987;82;21150;-89
2021/04/30 12:54:34;;;;;;;8.03;5.55;;;;;;;22.64;53.12;100715.79;1743366;82;21354;-89
2021/04/30 12:57:30;;;;;;;6.67;5.33;;;;;;;22.75;50.18;100714.95;1739287;82;21634;-89
2021/04/30 13:00:09;;;;;;;5.70;5.20;;;;;;;22.86;49.02;100711.78;1694461;83;21092;-89
2021/04/30 13:07:01;;;;;;;5.05;4.58;;;;;;;23.03;48.35;100702.17;1688284;84;20998;-90
2021/04/30 13:09:33;;;;;;;7.80;4.90;;;;;;;23.08;48.99;100690.45;1731377;82;21210;-90
2021/04/30 13:12:07;;;;;;;8.15;4.80;;;;;;;23.11;46.24;100690.06;1731014;82;21254;-89
2021/04/30 13:14:49;;;;;;;7.78;4.80;;;;;;;22.99;46.58;100689.28;1733990;82;21210;-89
2021/04/30 13:17:27;;;;;;;7.33;5.10;;;;;;;22.87;49.43;100691.34;1741236;81;21145;-89
2021/04/30 13:20:20;;;;;;;8.60;6.30;;;;;;;22.86;49.36;100687.89;1758183;81;21234;-89
2021/04/30 13:23:09;;;;;;;6.58;5.45;;;;;;;22.78;48.49;100690.69;1747436;81;21384;-89
2021/04/30 13:25:46;;;;;;;17.70;6.42;;;;;;;22.64;48.43;100684.47;1732329;82;21155;-89
2021/04/30 13:28:22;;;;;;;10.20;5.58;;;;;;;22.47;49.94;100687.92;1739944;82;21155;-89
2021/04/30 13:30:53;;;;;;;10.32;5.70;;;;;;;22.47;50.85;100687.41;1723631;83;21277;-88
2021/04/30 13:33:24;;;;;;;;;;;;;;;22.56;49.48;100685.42;1730984;83;21179;-90
2021/04/30 13:36:10;;;;;;;13.75;7.05;;;;;;;22.59;46.45;100686.89;1728723;83;21291;-90
2021/04/30 13:39:09;;;;;;;14.35;7.30;;;;;;;22.56;47.57;100681.95;1670094;86;21086;-89
2021/04/30 13:41:44;;;;;;;10.63;6.95;;;;;;;22.48;45.90;100676.27;1699814;84;21178;-90
2021/04/30 13:44:22;;;;;;;18.23;7.87;;;;;;;22.30;49.16;100673.58;1717620;82;21202;-91
2021/04/30 13:46:57;;;;;;;13.98;8.65;;;;;;;22.20;46.74;100671.23;1721575;82;21159;-92
2021/04/30 13:58:12;;;;;;;11.18;8.10;;;;;;;22.05;50.69;100664.70;1724643;83;21140;-91
2021/04/30 14:00:40;;;;;;;11.28;7.33;;;;;;;22.10;51.32;100671.25;1726131;81;21127;-88
2021/04/30 14:03:44;;;;;;;10.53;8.50;;;;;;;22.17;49.96;100670.80;1726431;83;21118;-88
2021/04/30 14:10:35;;;;;;;10.23;7.20;;;;;;;22.27;50.87;100660.69;1728649;83;21179;-90
2021/04/30 14:17:10;;;;;;;10.98;8.25;;;;;;;22.24;51.07;100659.73;1728406;83;21218;-89
2021/04/30 14:19:40;;;;;;;12.33;7.40;;;;;;;22.21;53.04;100654.31;1702125;83;21135;-91
2021/04/30 14:22:12;;;;;;;13.65;7.60;;;;;;;22.22;53.48;100651.17;1697763;84;21562;-92
2021/04/30 14:29:10;;;;;;;9.38;6.97;;;;;;;22.16;53.81;100646.61;1711160;83;21168;-90
2021/04/30 14:35:14;;;;;;;9.40;6.87;;;;;;;21.87;54.08;100645.75;1664356;84;21191;-88
2021/04/30 14:37:43;;;;;;;9.93;6.03;;;;;;;21.64;52.47;100646.76;1664143;84;22224;-88
2021/04/30 14:40:40;;;;;;;7.35;5.15;;;;;;;21.51;56.64;100636.00;1699231;84;21194;-88
2021/04/30 14:43:09;;;;;;;6.40;4.60;;;;;;;21.43;55.28;100643.54;1669403;85;21127;-89
2021/04/30 14:45:38;;;;;;;8.78;5.70;;;;;;;21.36;53.90;100643.45;1697128;84;21253;-89
2021/04/30 14:48:07;;;;;;;5.85;4.80;;;;;;;21.25;54.97;100634.68;1695416;84;21249;-89
2021/04/30 14:50:36;;;;;;;5.80;5.20;;;;;;;21.14;56.92;100631.17;1645362;84;21465;-89
2021/04/30 14:53:04;;;;;;;6.92;5.00;;;;;;;21.05;59.01;100638.41;1693004;84;21131;-89